Time;durP1;ratioP1;P1;durP2;ratioP2;P2;SDS_P1;SDS_P2;PMS_P1;PMS_P2;Temp;Humidity;BMP_temperature;BMP_pressure;BME280_temperature;BME280_humidity;BME280_pressure;Samples;Min_cycle;Max_cycle;Signal;HPM_P1;HPM_P2
2023/07/07 00:01:22;;;;;;;1.33;1.17;;;;;;;16.84;73.29;99858.78;5114298;28;20078;-63
2023/07/07 00:03:51;;;;;;;1.95;1.33;;;;;;;16.68;73.57;99857.41;5114512;28;20058;-63
2023/07/07 00:06:21;;;;;;;0.88;0.88;;;;;;;16.54;73.88;99864.63;5114096;28;20051;-63
2023/07/07 00:08:52;;;;;;;1.55;1.25;;;;;;;16.47;74.36;99865.59;5114497;28;20040;-63
2023/07/07 00:11:23;;;;;;;1.60;1.45;;;;;;;16.36;74.68;99867.56;5114228;28;20443;-63
2023/07/07 00:13:54;;;;;;;0.50;0.50;;;;;;;16.35;74.88;99860.69;5114438;28;20555;-63
2023/07/07 00:16:27;;;;;;;1.00;0.77;;;;;;;16.28;75.05;99859.13;5114288;28;20398;-63
2023/07/07 00:18:58;;;;;;;1.67;1.25;;;;;;;16.30;75.23;99867.69;5114083;28;20476;-63
2023/07/07 00:21:27;;;;;;;0.45;0.45;;;;;;;16.31;75.28;99859.09;5114037;28;20572;-63
2023/07/07 00:23:57;;;;;;;0.63;0.63;;;;;;;16.33;75.16;99862.47;5114029;28;20050;-63
2023/07/07 00:26:28;;;;;;;1.60;1.02;;;;;;;16.40;75.11;99856.31;5113039;28;20481;-63
2023/07/07 00:28:56;;;;;;;0.90;0.90;;;;;;;16.47;75.27;99860.44;5113582;28;20051;-63
2023/07/07 00:31:26;;;;;;;1.52;1.05;;;;;;;16.51;74.80;99864.63;5113987;28;20134;-63
2023/07/07 00:33:55;;;;;;;1.40;0.90;;;;;;;16.52;74.69;99871.53;5113922;28;20043;-63
2023/07/07 00:36:24;;;;;;;1.10;1.00;;;;;;;16.62;74.71;99873.88;5113915;28;20054;-63
2023/07/07 00:38:53;;;;;;;0.60;0.60;;;;;;;16.66;74.34;99861.75;5113847;28;20040;-63
2023/07/07 00:41:22;;;;;;;0.70;0.70;;;;;;;16.81;73.78;99876.91;5114126;28;20061;-63
2023/07/07 00:44:05;;;;;;;0.55;0.55;;;;;;;16.95;73.50;99871.41;5113779;28;20074;-63
2023/07/07 00:46:35;;;;;;;0.77;0.77;;;;;;;16.98;72.92;99873.91;5113776;28;20047;-63
2023/07/07 00:49:09;;;;;;;1.88;1.10;;;;;;;17.01;72.97;99884.19;5113938;28;20052;-63
2023/07/07 00:51:41;;;;;;;0.75;0.75;;;;;;;17.08;72.58;99886.56;5113735;28;20051;-63
2023/07/07 00:54:15;;;;;;;1.25;1.15;;;;;;;17.06;72.58;99883.16;5112569;28;20054;-63
2023/07/07 00:56:49;;;;;;;0.60;0.60;;;;;;;17.10;72.43;99879.66;5112451;28;20051;-63
2023/07/07 00:59:23;;;;;;;1.92;1.67;;;;;;;17.13;71.95;99883.88;5114028;28;20163;-63
2023/07/07 01:01:57;;;;;;;1.10;1.00;;;;;;;17.10;71.92;99889.97;5113738;28;20052;-63
2023/07/07 01:04:27;;;;;;;0.95;0.95;;;;;;;17.09;71.96;99879.66;5112635;28;20047;-63
2023/07/07 01:07:03;;;;;;;1.58;1.25;;;;;;;17.14;72.00;99881.25;5112778;28;20039;-63
2023/07/07 01:09:32;;;;;;;0.63;0.63;;;;;;;17.18;71.50;99884.63;5113509;28;20132;-63
2023/07/07 01:12:01;;;;;;;0.60;0.60;;;;;;;17.11;71.41;99878.75;5113469;28;20042;-63
2023/07/07 01:14:32;;;;;;;1.20;1.10;;;;;;;17.17;71.13;99886.34;5113525;28;20284;-63
2023/07/07 01:17:14;;;;;;;0.85;0.85;;;;;;;17.12;71.08;99883.03;5113527;28;20067;-63
2023/07/07 01:20:12;;;;;;;0.50;0.50;;;;;;;17.15;71.09;99897.59;5113641;28;20046;-63
2023/07/07 01:23:05;;;;;;;0.82;0.82;;;;;;;17.12;71.13;99893.34;5113447;28;20031;-63
2023/07/07 01:25:55;;;;;;;0.60;0.60;;;;;;;17.10;70.98;99902.84;5113525;28;20077;-63
2023/07/07 01:28:39;;;;;;;1.17;0.90;;;;;;;17.01;70.86;99904.81;5114223;28;20036;-63
2023/07/07 01:31:15;;;;;;;0.98;0.88;;;;;;;17.01;71.12;99900.47;5117121;28;20500;-63
2023/07/07 01:33:47;;;;;;;0.65;0.60;;;;;;;16.90;71.30;99907.63;5117147;28;20048;-63
2023/07/07 01:36:16;;;;;;;1.25;1.15;;;;;;;16.84;71.43;99900.03;5117018;28;20039;-63
2023/07/07 01:38:47;;;;;;;0.60;0.60;;;;;;;16.84;71.58;99899.19;5117248;28;20370;-64
2023/07/07 01:41:23;;;;;;;1.95;1.20;;;;;;;16.86;71.35;99893.09;5115784;28;20524;-63
2023/07/07 01:44:00;;;;;;;0.70;0.70;;;;;;;16.84;71.48;99897.47;5117081;28;20047;-63
2023/07/07 01:46:36;;;;;;;0.98;0.93;;;;;;;16.64;71.67;99894.47;5116789;27;20051;-64
2023/07/07 01:49:12;;;;;;;1.10;0.93;;;;;;;16.56;72.27;99886.88;5116870;28;20048;-64
2023/07/07 01:51:48;;;;;;;1.42;0.80;;;;;;;16.59;72.73;99885.97;5115529;28;20054;-64
2023/07/07 01:54:19;;;;;;;1.17;0.90;;;;;;;16.52;72.63;99899.88;5116633;27;20576;-64
2023/07/07 01:56:50;;;;;;;0.88;0.77;;;;;;;16.43;73.04;99905.19;5116851;28;20066;-64
2023/07/07 01:59:20;;;;;;;1.17;0.90;;;;;;;16.39;72.83;99904.41;5116850;28;20066;-64
2023/07/07 02:01:51;;;;;;;0.73;0.73;;;;;;;16.45;73.03;99911.16;5116448;28;20044;-64
2023/07/07 02:04:20;;;;;;;1.00;0.93;;;;;;;16.47;72.83;99902.53;5116782;28;20070;-64
2023/07/07 02:06:50;;;;;;;0.75;0.75;;;;;;;16.52;72.64;99905.88;5115774;28;20489;-64
2023/07/07 02:09:21;;;;;;;1.33;1.23;;;;;;;16.54;72.55;99904.13;5116295;28;20082;-64
2023/07/07 02:11:50;;;;;;;0.70;0.70;;;;;;;16.43;72.52;99900.91;5115097;28;20374;-64
2023/07/07 02:14:19;;;;;;;2.30;0.90;;;;;;;16.33;73.17;99907.13;5115082;28;20039;-64
2023/07/07 02:16:50;;;;;;;0.77;0.77;;;;;;;16.22;73.41;99898.75;5114890;28;20079;-64
2023/07/07 02:19:19;;;;;;;2.60;1.52;;;;;;;16.25;73.62;99905.56;5115269;28;20062;-64
2023/07/07 02:21:48;;;;;;;0.83;0.83;;;;;;;16.29;73.48;99907.22;5116064;28;20050;-64
2023/07/07 02:24:17;;;;;;;1.00;0.77;;;;;;;16.36;73.65;99913.94;5116100;28;20071;-64
2023/07/07 02:26:45;;;;;;;1.10;1.00;;;;;;;16.29;73.56;99908.03;5115979;28;20044;-65
2023/07/07 02:29:14;;;;;;;2.77;2.10;;;;;;;16.34;73.50;99916.53;5114806;28;20427;-65
2023/07/07 02:31:45;;;;;;;1.08;0.98;;;;;;;16.29;73.06;99907.22;5115925;28;20279;-65
2023/07/07 02:34:15;;;;;;;3.50;1.02;;;;;;;16.35;73.37;99910.50;5114984;28;20393;-65
2023/07/07 02:36:44;;;;;;;0.50;0.50;;;;;;;16.40;73.37;99910.41;5114789;28;20111;-65
2023/07/07 02:39:14;;;;;;;1.08;0.93;;;;;;;16.41;73.26;99922.44;5114848;28;20047;-65
2023/07/07 02:41:42;;;;;;;;;;;;;;;16.42;73.09;99918.94;5114166;28;20040;-64
2023/07/07 02:44:11;;;;;;;0.90;0.88;;;;;;;16.32;73.30;99928.59;5114977;28;19926;-64
2023/07/07 02:46:40;;;;;;;1.35;1.25;;;;;;;16.33;73.24;99921.72;5115867;28;20485;-65
2023/07/07 02:49:09;;;;;;;1.02;0.93;;;;;;;16.34;73.05;99926.00;5115611;28;20100;-64
2023/07/07 02:51:40;;;;;;;1.55;0.80;;;;;;;16.31;73.35;99926.06;5114353;28;20036;-64
2023/07/07 02:54:09;;;;;;;1.52;1.00;;;;;;;16.32;73.26;99922.59;5115407;28;20055;-64
2023/07/07 02:56:38;;;;;;;1.40;0.93;;;;;;;16.24;73.39;99919.34;5115690;28;20067;-64
2023/07/07 02:59:07;;;;;;;0.60;0.60;;;;;;;16.25;73.65;99926.16;5114551;28;20104;-64
2023/07/07 03:01:36;;;;;;;1.80;1.60;;;;;;;16.24;73.46;99927.06;5115542;28;20044;-64
2023/07/07 03:04:05;;;;;;;0.82;0.82;;;;;;;16.17;73.63;99923.75;5114077;28;20123;-64
2023/07/07 03:06:34;;;;;;;1.17;1.07;;;;;;;16.15;73.86;99934.97;5114313;28;20074;-64
2023/07/07 03:09:04;;;;;;;1.25;1.15;;;;;;;16.06;74.16;99936.84;5115201;28;20040;-64
2023/07/07 03:11:34;;;;;;;1.65;1.52;;;;;;;16.00;74.19;99930.97;5113966;28;20047;-64
2023/07/07 03:14:05;;;;;;;0.65;0.65;;;;;;;16.01;74.75;99941.22;5115091;27;20098;-64
2023/07/07 03:16:47;;;;;;;1.65;1.10;;;;;;;16.06;74.67;99941.97;5114908;28;20043;-64
2023/07/07 03:19:21;;;;;;;0.68;0.68;;;;;;;16.10;74.43;99951.34;5115830;28;20508;-64
2023/07/07 03:22:11;;;;;;;0.70;0.70;;;;;;;16.10;74.14;99948.75;5114890;28;20512;-64
2023/07/07 03:24:55;;;;;;;2.00;1.48;;;;;;;16.12;74.41;99958.19;5114837;28;20058;-64
2023/07/07 03:27:35;;;;;;;1.50;1.15;;;;;;;16.17;74.13;99953.81;5115140;28;20453;-65
2023/07/07 03:30:06;;;;;;;0.95;0.80;;;;;;;16.20;74.34;99958.88;5113760;28;20048;-64
2023/07/07 03:32:50;;;;;;;0.77;0.77;;;;;;;16.19;74.20;99952.91;5114708;28;20074;-64
2023/07/07 03:35:21;;;;;;;1.35;1.25;;;;;;;16.25;74.08;99962.22;5114647;28;20097;-64
2023/07/07 03:37:49;;;;;;;7.75;2.08;;;;;;;16.22;74.35;99952.00;5114555;28;20039;-64
2023/07/07 03:40:21;;;;;;;0.60;0.60;;;;;;;16.29;74.52;99958.72;5115227;28;20051;-64
2023/07/07 03:42:50;;;;;;;0.70;0.70;;;;;;;16.37;74.41;99961.97;5114490;28;20058;-64
2023/07/07 03:45:19;;;;;;;0.97;0.73;;;;;;;16.39;73.85;99957.66;5114818;28;20070;-64
2023/07/07 03:47:48;;;;;;;1.48;0.65;;;;;;;16.38;73.98;99958.53;5113243;28;20044;-64
2023/07/07 03:50:20;;;;;;;1.55;1.25;;;;;;;16.38;74.18;99959.41;5114557;28;20142;-64
2023/07/07 03:52:49;;;;;;;0.83;0.83;;;;;;;16.42;74.13;99965.31;5113011;28;20050;-64
2023/07/07 03:55:19;;;;;;;0.73;0.73;;;;;;;16.43;74.03;99959.31;5113095;28;20367;-64
2023/07/07 03:57:49;;;;;;;1.20;0.90;;;;;;;16.46;73.98;99956.69;5113230;28;20067;-64
2023/07/07 04:00:20;;;;;;;1.17;0.93;;;;;;;16.52;74.26;99957.44;5113314;28;20280;-64
2023/07/07 04:02:49;;;;;;;1.77;1.33;;;;;;;16.52;73.65;99957.44;5114332;28;20039;-64
2023/07/07 04:05:20;;;;;;;2.10;0.90;;;;;;;16.60;73.52;99959.84;5114272;28;20047;-64
2023/07/07 04:07:49;;;;;;;2.38;1.00;;;;;;;16.70;73.25;99962.19;5113508;28;20035;-64
2023/07/07 04:10:18;;;;;;;0.70;0.68;;;;;;;16.77;73.16;99956.91;5113190;28;20047;-64
2023/07/07 04:12:49;;;;;;;0.57;0.57;;;;;;;16.84;73.00;99963.63;5114180;28;20031;-63
2023/07/07 04:15:19;;;;;;;0.73;0.73;;;;;;;16.88;72.52;99960.94;5114342;28;20393;-64
2023/07/07 04:17:48;;;;;;;0.95;0.93;;;;;;;16.97;72.24;99954.72;5114503;28;20063;-64
2023/07/07 04:20:17;;;;;;;0.80;0.80;;;;;;;17.00;72.01;99965.00;5114110;28;20061;-64
2023/07/07 04:22:46;;;;;;;1.10;0.90;;;;;;;17.01;72.02;99964.94;5112761;28;20501;-64
2023/07/07 04:25:17;;;;;;;1.83;1.50;;;;;;;17.16;71.86;99976.66;5114023;28;20054;-64
2023/07/07 04:27:49;;;;;;;1.50;1.23;;;;;;;17.27;71.58;99970.38;5113978;28;20047;-63
2023/07/07 04:30:18;;;;;;;1.92;1.10;;;;;;;17.31;71.40;99966.84;5113754;28;20051;-63
2023/07/07 04:32:47;;;;;;;4.22;1.98;;;;;;;17.36;71.45;99975.31;5113862;28;20050;-63
2023/07/07 04:35:16;;;;;;;5.82;2.47;;;;;;;17.43;70.96;99984.63;5114051;28;20043;-63
2023/07/07 04:37:45;;;;;;;1.20;0.88;;;;;;;17.49;70.74;99983.63;5113683;28;20039;-63
2023/07/07 04:40:14;;;;;;;2.10;1.07;;;;;;;17.53;70.32;99987.00;5114096;28;20066;-62
2023/07/07 04:42:43;;;;;;;0.88;0.70;;;;;;;17.59;70.14;99976.56;5114153;28;20274;-63
2023/07/07 04:45:13;;;;;;;0.83;0.73;;;;;;;17.79;69.85;99980.31;5113769;28;20043;-63
2023/07/07 04:47:42;;;;;;;0.90;0.85;;;;;;;17.92;69.68;99975.69;5113992;28;20292;-63
2023/07/07 04:50:11;;;;;;;0.63;0.63;;;;;;;18.03;69.38;99971.09;5114066;28;20039;-63
2023/07/07 04:52:41;;;;;;;0.73;0.73;;;;;;;18.27;69.23;99983.34;5113685;28;20272;-63
2023/07/07 04:55:12;;;;;;;1.17;1.07;;;;;;;18.40;68.92;99973.53;5114074;28;20401;-63
2023/07/07 04:57:41;;;;;;;1.20;1.10;;;;;;;18.55;68.63;99989.50;5113754;28;20091;-63
2023/07/07 05:00:12;;;;;;;1.37;0.90;;;;;;;18.64;68.42;99989.22;5113578;28;20051;-63
2023/07/07 05:02:46;;;;;;;1.17;1.08;;;;;;;18.69;67.81;99987.34;5113962;28;20119;-63
2023/07/07 05:05:15;;;;;;;1.13;1.02;;;;;;;18.64;67.19;99986.63;5117207;28;20047;-63
2023/07/07 05:07:44;;;;;;;0.88;0.80;;;;;;;18.76;66.73;99989.78;5117806;28;20039;-63
2023/07/07 05:10:13;;;;;;;0.77;0.77;;;;;;;18.83;66.34;99993.88;5117987;28;20478;-63
2023/07/07 05:12:41;;;;;;;0.70;0.70;;;;;;;18.86;66.12;99999.78;5117737;28;20058;-63
2023/07/07 05:15:11;;;;;;;2.20;1.85;;;;;;;18.94;65.89;99994.41;5117754;28;20039;-63
2023/07/07 05:17:40;;;;;;;0.80;0.80;;;;;;;19.04;65.53;99993.25;5117539;28;20040;-63
2023/07/07 05:20:11;;;;;;;0.80;0.80;;;;;;;19.13;65.18;99985.19;5117568;28;20443;-63
2023/07/07 05:22:41;;;;;;;8.07;1.35;;;;;;;19.22;64.82;99982.31;5117937;28;20093;-63
2023/07/07 05:25:10;;;;;;;0.87;0.83;;;;;;;19.35;64.51;99991.41;5117769;28;20462;-63
2023/07/07 05:27:38;;;;;;;2.83;0.95;;;;;;;19.53;64.42;99997.78;5117236;28;20465;-63
2023/07/07 05:30:08;;;;;;;0.70;0.70;;;;;;;19.61;63.85;99996.63;5117055;28;20497;-63
2023/07/07 05:32:37;;;;;;;1.00;0.82;;;;;;;19.75;63.73;99984.06;5117445;28;20181;-63
2023/07/07 05:35:07;;;;;;;1.20;1.10;;;;;;;19.87;63.50;99994.03;5117343;28;20038;-63
2023/07/07 05:37:37;;;;;;;;;;;;;;;19.97;63.02;99995.41;5099018;28;20758;-63
2023/07/07 05:40:08;;;;;;;0.57;0.57;;;;;;;20.08;63.26;99991.63;5117330;28;19920;-63
2023/07/07 05:42:37;;;;;;;2.45;1.27;;;;;;;20.17;63.06;99994.75;5117309;27;20055;-63
2023/07/07 05:45:06;;;;;;;2.20;1.47;;;;;;;20.27;62.61;99995.28;5115898;28;20042;-63
2023/07/07 05:47:35;;;;;;;0.70;0.70;;;;;;;20.33;62.58;99990.72;5116633;28;20105;-63
2023/07/07 05:50:05;;;;;;;3.28;1.83;;;;;;;20.45;61.92;99997.22;5116950;28;20046;-63
2023/07/07 05:52:33;;;;;;;;;;;;;;;20.60;61.75;99991.50;5117414;28;20032;-63
2023/07/07 05:55:05;;;;;;;2.28;1.23;;;;;;;20.76;61.09;99992.59;5116686;28;19924;-63
2023/07/07 05:57:34;;;;;;;1.17;1.10;;;;;;;20.84;61.18;100000.97;5116387;28;20039;-63
2023/07/07 06:00:04;;;;;;;0.80;0.80;;;;;;;20.95;60.84;100004.00;5116556;28;20524;-63
2023/07/07 06:02:40;;;;;;;0.93;0.85;;;;;;;21.01;60.87;100002.94;5116840;28;20272;-63
2023/07/07 06:05:09;;;;;;;1.10;1.02;;;;;;;21.09;60.73;99998.31;5116702;28;20043;-63
2023/07/07 06:07:38;;;;;;;1.13;1.02;;;;;;;21.12;60.36;100006.81;5116312;28;20044;-63
2023/07/07 06:10:10;;;;;;;4.83;1.43;;;;;;;21.28;60.15;100001.91;5116452;28;20036;-64
2023/07/07 06:12:39;;;;;;;1.45;1.15;;;;;;;21.44;59.68;100002.97;5116224;28;20276;-63
2023/07/07 06:15:09;;;;;;;1.02;0.75;;;;;;;21.61;59.54;100007.50;5116319;28;20088;-63
2023/07/07 10:49:55;;;;;;;0.40;0.40;;;;;;;28.16;30.54;100020.72;5132626;27;20383;-68
2023/07/07 10:52:44;;;;;;;0.63;0.63;;;;;;;28.28;30.34;100030.41;5132276;27;20044;-69
2023/07/07 10:55:38;;;;;;;0.60;0.60;;;;;;;28.71;30.01;100032.72;5131918;27;20119;-67
2023/07/07 10:58:21;;;;;;;0.43;0.43;;;;;;;28.85;29.68;100030.81;5131728;28;20044;-70
2023/07/07 11:01:05;;;;;;;0.40;0.40;;;;;;;29.13;29.88;100030.53;5131746;28;20043;-67
2023/07/07 11:03:58;;;;;;;0.40;0.40;;;;;;;29.34;28.75;100022.94;5131730;27;20051;-68
2023/07/07 11:06:40;;;;;;;0.80;0.80;;;;;;;29.50;28.32;100020.84;5131857;28;20396;-68
2023/07/07 11:09:27;;;;;;;0.40;0.40;;;;;;;29.63;28.80;100023.44;5131874;27;20061;-68
2023/07/07 11:12:06;;;;;;;0.65;0.63;;;;;;;29.82;29.07;100024.63;5131453;28;20058;-66
2023/07/07 11:14:50;;;;;;;0.55;0.55;;;;;;;29.87;28.81;100011.13;5131900;27;20066;-68
2023/07/07 11:17:36;;;;;;;0.82;0.77;;;;;;;29.99;29.43;99999.66;5132097;28;20050;-68
2023/07/07 11:20:28;;;;;;;0.63;0.63;;;;;;;29.98;29.07;100008.50;5131640;28;20563;-68
2023/07/07 11:23:18;;;;;;;0.45;0.45;;;;;;;30.01;28.51;100012.69;5131523;28;20065;-71
2023/07/07 11:25:57;;;;;;;0.40;0.40;;;;;;;29.75;27.97;100007.56;5131225;27;20043;-69
2023/07/07 11:28:37;;;;;;;0.98;0.85;;;;;;;29.87;27.85;100005.84;5131280;27;20043;-68
2023/07/07 11:31:26;;;;;;;0.60;0.60;;;;;;;29.95;27.75;100007.88;5131514;28;20154;-67
2023/07/07 11:34:04;;;;;;;0.40;0.40;;;;;;;29.74;27.68;100005.06;5131410;27;20036;-68
2023/07/07 11:36:49;;;;;;;0.60;0.60;;;;;;;29.61;27.93;99999.84;5131290;28;20149;-68
2023/07/07 11:39:46;;;;;;;21.65;1.40;;;;;;;29.73;27.97;99998.13;5131297;28;20047;-68
2023/07/07 11:42:40;;;;;;;0.50;0.50;;;;;;;29.88;28.44;99996.97;5129751;28;20396;-67
2023/07/07 11:45:20;;;;;;;0.60;0.60;;;;;;;30.09;28.62;99992.72;5131064;27;20515;-69
2023/07/07 11:48:08;;;;;;;0.70;0.70;;;;;;;30.35;28.77;99996.84;5130584;27;20052;-66
2023/07/07 11:50:52;;;;;;;0.50;0.50;;;;;;;30.02;29.42;99982.81;5129413;28;20059;-67
2023/07/07 11:53:46;;;;;;;0.50;0.50;;;;;;;29.50;28.78;99983.19;5130761;27;20047;-69
2023/07/07 11:56:38;;;;;;;0.52;0.52;;;;;;;29.14;28.41;99995.41;5130625;28;20043;-69
2023/07/07 11:59:27;;;;;;;0.40;0.40;;;;;;;29.13;27.84;99985.00;5129429;27;20074;-68
2023/07/07 12:01:58;;;;;;;1.45;1.33;;;;;;;29.39;27.86;99993.66;5116943;28;20051;-69
2023/07/07 12:04:32;;;;;;;0.77;0.77;;;;;;;29.69;27.71;100001.91;5116671;28;20067;-68
2023/07/07 12:07:10;;;;;;;0.60;0.57;;;;;;;29.79;27.49;99988.00;5116850;28;20059;-68
2023/07/07 12:09:43;;;;;;;0.40;0.40;;;;;;;29.82;27.28;99984.31;5116918;28;20040;-69
2023/07/07 12:12:20;;;;;;;1.23;0.80;;;;;;;29.93;27.69;99979.06;5116722;28;20062;-69
2023/07/07 12:14:57;;;;;;;1.80;1.23;;;;;;;30.11;27.40;99971.56;5116880;28;20382;-69
2023/07/07 12:17:36;;;;;;;1.30;1.13;;;;;;;30.52;28.45;99977.94;5116602;28;20051;-68
2023/07/07 12:20:13;;;;;;;8.50;1.15;;;;;;;30.73;28.52;99985.13;5116612;28;20480;-67
2023/07/07 12:22:42;;;;;;;0.50;0.50;;;;;;;30.73;28.94;99974.59;5116215;28;20386;-68
2023/07/07 12:25:23;;;;;;;0.57;0.57;;;;;;;30.72;28.98;99978.19;5116505;28;20489;-70
2023/07/07 12:27:55;;;;;;;0.45;0.45;;;;;;;30.76;28.11;99982.25;5116682;28;20059;-66
2023/07/07 12:30:27;;;;;;;1.65;1.23;;;;;;;30.48;27.31;99973.88;5116536;28;20062;-67
2023/07/07 12:32:57;;;;;;;1.55;0.88;;;;;;;30.36;27.45;99977.47;5116276;28;20501;-67
2023/07/07 12:35:30;;;;;;;0.82;0.60;;;;;;;30.48;27.82;99975.66;5116157;28;20489;-68
2023/07/07 12:38:24;;;;;;;0.60;0.60;;;;;;;30.54;26.87;99969.09;5116279;28;20126;-68
2023/07/07 12:40:56;;;;;;;1.08;0.80;;;;;;;30.24;26.55;99970.47;5116215;27;20055;-67
2023/07/07 12:43:34;;;;;;;0.57;0.57;;;;;;;30.04;26.34;99965.94;5115129;28;20048;-67
2023/07/07 12:46:06;;;;;;;0.65;0.63;;;;;;;30.02;26.30;99962.53;5116328;28;20051;-70
2023/07/07 12:48:35;;;;;;;3.10;1.45;;;;;;;29.97;26.59;99964.69;5115643;28;20147;-67
2023/07/07 12:51:07;;;;;;;0.60;0.60;;;;;;;30.05;26.40;99964.94;5116067;28;20422;-67
2023/07/07 12:53:41;;;;;;;0.50;0.50;;;;;;;30.22;27.50;99958.38;5115836;28;20096;-67
2023/07/07 12:56:18;;;;;;;1.02;0.90;;;;;;;30.28;27.03;99966.66;5116301;28;20071;-69
2023/07/07 12:58:51;;;;;;;0.80;0.80;;;;;;;30.29;26.83;99963.06;5116128;28;20047;-68
2023/07/07 13:01:38;;;;;;;0.50;0.50;;;;;;;30.39;26.19;99966.69;5115775;28;20051;-68
2023/07/07 13:04:16;;;;;;;0.60;0.60;;;;;;;30.17;25.84;99966.66;5115655;28;20104;-70
2023/07/07 13:07:05;;;;;;;0.50;0.50;;;;;;;30.17;26.05;99961.38;5115652;28;20044;-68
2023/07/07 13:09:46;;;;;;;0.40;0.40;;;;;;;30.04;26.56;99971.19;5115778;28;20043;-67
2023/07/07 13:12:41;;;;;;;0.35;0.35;;;;;;;30.16;26.79;99957.06;5114696;28;20279;-69
2023/07/07 13:15:19;;;;;;;0.40;0.40;;;;;;;30.33;27.29;99956.63;5105745;28;20115;-68
2023/07/07 13:17:51;;;;;;;0.73;0.73;;;;;;;30.40;27.30;99957.81;5115779;28;20116;-67
2023/07/07 13:20:22;;;;;;;0.60;0.60;;;;;;;30.46;28.17;99957.34;5115306;28;20074;-67
2023/07/07 13:22:56;;;;;;;1.00;0.90;;;;;;;30.54;27.40;99963.81;5115336;28;20501;-68
2023/07/07 13:25:30;;;;;;;0.47;0.47;;;;;;;30.54;27.43;99964.66;5115611;28;20047;-69
2023/07/07 13:27:59;;;;;;;0.65;0.65;;;;;;;30.44;27.26;99959.28;5115123;28;20058;-67
2023/07/07 13:30:34;;;;;;;0.40;0.40;;;;;;;30.48;27.87;99960.72;5115025;28;20094;-68
2023/07/07 13:33:06;;;;;;;0.40;0.40;;;;;;;30.27;27.27;99966.78;5115191;28;20039;-69
2023/07/07 13:35:39;;;;;;;0.52;0.52;;;;;;;30.24;26.94;99951.19;5114935;28;20055;-69
2023/07/07 13:38:13;;;;;;;0.52;0.52;;;;;;;29.92;26.41;99956.31;5115337;28;20164;-68
2023/07/07 13:40:42;;;;;;;0.45;0.45;;;;;;;29.71;26.88;99957.88;5114974;28;20043;-69
2023/07/07 13:43:30;;;;;;;0.60;0.60;;;;;;;29.76;26.72;99958.38;5113954;28;20212;-69
2023/07/07 13:46:04;;;;;;;0.47;0.47;;;;;;;29.85;26.43;99955.94;5114890;28;20052;-67
2023/07/07 13:48:43;;;;;;;0.60;0.60;;;;;;;29.87;26.40;99950.56;5114619;28;20638;-68
2023/07/07 13:51:14;;;;;;;0.75;0.75;;;;;;;29.82;26.27;99952.72;5115448;28;20036;-70
2023/07/07 13:53:46;;;;;;;0.55;0.55;;;;;;;29.84;26.24;99948.16;5114690;28;20068;-69
2023/07/07 13:56:15;;;;;;;0.38;0.38;;;;;;;29.95;26.46;99953.44;5114730;28;20047;-69
2023/07/07 13:58:45;;;;;;;;;;;;;;;30.09;27.23;99947.13;5114973;28;20043;-68
2023/07/07 14:01:23;;;;;;;0.52;0.52;;;;;;;30.20;27.51;99942.72;5114776;28;19973;-68
2023/07/07 14:03:55;;;;;;;0.52;0.52;;;;;;;30.21;27.41;99947.00;5114850;28;20043;-67
2023/07/07 14:06:24;;;;;;;1.95;0.75;;;;;;;30.15;26.51;99952.75;5115136;28;20040;-68
2023/07/07 14:08:53;;;;;;;0.63;0.55;;;;;;;30.19;27.49;99943.66;5114391;28;20043;-69
2023/07/07 14:11:24;;;;;;;0.40;0.40;;;;;;;30.08;27.01;99946.28;5112330;28;20566;-68
2023/07/07 14:13:56;;;;;;;0.40;0.40;;;;;;;30.08;26.96;99950.72;5114429;28;20055;-68
2023/07/07 14:16:33;;;;;;;0.52;0.52;;;;;;;30.11;26.48;99950.50;5114632;28;20123;-67
2023/07/07 14:19:08;;;;;;;0.40;0.40;;;;;;;30.09;26.76;99958.47;5114359;28;20043;-67
2023/07/07 14:21:37;;;;;;;0.43;0.43;;;;;;;30.10;27.07;99946.16;5114593;28;20100;-68
2023/07/07 14:24:06;;;;;;;;;;;;;;;30.03;26.25;99940.53;5114367;28;20130;-67
2023/07/07 14:26:36;;;;;;;0.40;0.40;;;;;;;30.02;26.08;99946.75;5114516;28;19920;-68
2023/07/07 14:29:07;;;;;;;0.82;0.60;;;;;;;30.01;26.24;99946.88;5114687;28;20066;-69
2023/07/07 14:31:40;;;;;;;0.40;0.40;;;;;;;29.94;25.71;99949.16;5114098;28;20040;-66
2023/07/07 14:34:13;;;;;;;0.50;0.50;;;;;;;29.95;26.51;99939.44;5114088;28;20043;-67
2023/07/07 14:36:44;;;;;;;0.45;0.45;;;;;;;29.94;26.56;99948.31;5114411;28;20059;-69
2023/07/07 14:39:25;;;;;;;0.40;0.40;;;;;;;29.80;26.39;99941.47;5114382;28;20497;-67
2023/07/07 14:41:57;;;;;;;0.32;0.32;;;;;;;29.78;26.82;99943.34;5114090;28;20047;-65
2023/07/07 14:44:44;;;;;;;0.40;0.40;;;;;;;29.65;26.51;99935.53;5114247;28;20049;-67
2023/07/07 14:47:20;;;;;;;0.30;0.30;;;;;;;29.56;26.67;99943.28;5114050;28;20055;-67
2023/07/07 14:49:50;;;;;;;0.63;0.60;;;;;;;29.47;26.36;99942.16;5112499;28;20050;-67
2023/07/07 14:52:30;;;;;;;0.50;0.50;;;;;;;29.54;26.92;99937.25;5113882;28;20040;-66
2023/07/07 14:55:02;;;;;;;0.80;0.73;;;;;;;29.52;27.49;99944.44;5113956;28;20093;-67
2023/07/07 14:57:31;;;;;;;0.52;0.52;;;;;;;29.42;27.08;99946.91;5114019;28;20054;-66
2023/07/07 15:00:04;;;;;;;0.45;0.45;;;;;;;29.40;26.95;99947.97;5113796;28;20047;-70
2023/07/07 15:02:37;;;;;;;0.40;0.40;;;;;;;29.43;27.09;99951.22;5112834;28;20389;-67
2023/07/07 15:05:20;;;;;;;0.40;0.40;;;;;;;29.50;27.22;99943.72;5113810;28;20057;-65
2023/07/07 15:07:50;;;;;;;0.30;0.30;;;;;;;29.54;27.45;99945.16;5113955;28;20048;-65
2023/07/07 15:10:19;;;;;;;0.40;0.40;;;;;;;29.47;27.39;99941.31;5113645;28;20079;-65
2023/07/07 15:12:48;;;;;;;;;;;;;;;29.41;27.39;99937.34;5114096;28;20039;-68
2023/07/07 15:15:17;;;;;;;0.50;0.50;;;;;;;29.33;27.42;99944.13;5113852;28;19924;-64
2023/07/07 15:17:47;;;;;;;0.57;0.57;;;;;;;29.25;27.19;99943.88;5113630;28;20127;-66
2023/07/07 15:20:18;;;;;;;0.70;0.70;;;;;;;29.18;27.09;99944.28;5114264;28;20044;-66
2023/07/07 15:22:48;;;;;;;3.78;0.73;;;;;;;29.14;27.23;99953.34;5113640;28;20431;-66
2023/07/07 15:25:17;;;;;;;2.60;1.30;;;;;;;29.16;27.31;99950.59;5113940;28;20072;-67
2023/07/07 15:27:46;;;;;;;0.50;0.50;;;;;;;29.09;27.40;99954.63;5113606;28;20064;-68
2023/07/07 15:30:17;;;;;;;0.60;0.60;;;;;;;29.05;27.00;99947.91;5113736;28;20068;-66
2023/07/07 15:32:47;;;;;;;0.52;0.52;;;;;;;29.06;27.36;99953.03;5113905;28;20046;-67
2023/07/07 15:35:18;;;;;;;0.90;0.82;;;;;;;29.09;27.42;99950.19;5115254;28;20055;-66
2023/07/07 15:37:49;;;;;;;0.82;0.80;;;;;;;28.94;27.43;99951.28;5117775;28;20126;-65
2023/07/07 15:40:21;;;;;;;0.65;0.65;;;;;;;28.92;27.71;99958.47;5117530;27;20052;-67
2023/07/07 15:42:53;;;;;;;1.73;1.33;;;;;;;28.95;28.00;99953.00;5117320;28;20085;-65
2023/07/07 15:45:22;;;;;;;0.80;0.75;;;;;;;28.95;28.06;99960.03;5117348;28;20040;-66
2023/07/07 15:47:52;;;;;;;0.50;0.50;;;;;;;28.89;28.20;99963.94;5117353;28;20044;-65
2023/07/07 15:50:21;;;;;;;0.52;0.52;;;;;;;28.84;28.01;99962.59;5117140;28;20550;-65
2023/07/07 15:52:50;;;;;;;0.50;0.50;;;;;;;28.82;28.15;99961.88;5117197;28;20126;-67
2023/07/07 15:55:20;;;;;;;0.40;0.40;;;;;;;28.80;28.47;99969.84;5117285;28;20036;-67
2023/07/07 15:57:49;;;;;;;6.88;0.68;;;;;;;28.73;28.26;99963.34;5117341;28;20039;-67
2023/07/07 16:00:28;;;;;;;0.55;0.55;;;;;;;28.52;27.77;99954.31;5117000;28;20051;-66
2023/07/07 16:02:58;;;;;;;4.13;0.80;;;;;;;28.58;28.40;99969.66;5116993;28;20044;-65
2023/07/07 16:05:28;;;;;;;1.45;1.05;;;;;;;28.64;28.51;99963.16;5116837;28;20036;-65
2023/07/07 16:07:57;;;;;;;0.45;0.45;;;;;;;28.64;28.24;99958.75;5117103;28;20394;-68
2023/07/07 16:10:26;;;;;;;0.40;0.40;;;;;;;28.63;28.26;99962.31;5116671;28;20509;-65
2023/07/07 16:12:55;;;;;;;0.38;0.38;;;;;;;28.59;28.13;99958.19;5116955;28;20062;-64
2023/07/07 16:15:24;;;;;;;0.40;0.40;;;;;;;28.45;27.94;99963.59;5117581;28;20039;-64
2023/07/07 16:17:55;;;;;;;0.60;0.60;;;;;;;28.40;28.16;99965.69;5116899;28;20043;-64
2023/07/07 16:20:30;;;;;;;0.80;0.63;;;;;;;28.37;28.55;99965.91;5116574;28;20123;-66
2023/07/07 16:22:59;;;;;;;0.68;0.68;;;;;;;28.35;28.73;99973.03;5116863;28;20044;-65
2023/07/07 16:25:29;;;;;;;3.85;1.08;;;;;;;28.34;28.69;99972.19;5115547;28;20076;-64
2023/07/07 16:27:58;;;;;;;0.80;0.70;;;;;;;28.26;28.48;99974.53;5116531;28;20074;-65
2023/07/07 16:30:32;;;;;;;0.40;0.40;;;;;;;28.23;28.60;99973.88;5116233;28;20042;-65
2023/07/07 16:33:01;;;;;;;0.70;0.68;;;;;;;28.20;28.68;99979.34;5115401;28;20542;-68
2023/07/07 16:35:31;;;;;;;0.80;0.70;;;;;;;28.13;29.13;99978.94;5116230;28;20048;-66